Time;durP1;ratioP1;P1;durP2;ratioP2;P2;SDS_P1;SDS_P2;PMS_P1;PMS_P2;Temp;Humidity;BMP_temperature;BMP_pressure;BME280_temperature;BME280_humidity;BME280_pressure;Samples;Min_cycle;Max_cycle;Signal;HPM_P1;HPM_P2
2022/04/28 00:00:24;;;;;;;;;;;13.00;92.80;;;;;;4346629;33;43482;-85
2022/04/28 00:02:58;;;;;;;;;;;13.00;92.70;;;;;;4344867;33;42777;-85
2022/04/28 00:05:25;;;;;;;;;;;13.00;92.70;;;;;;4345604;33;44950;-85
2022/04/28 00:08:00;;;;;;;;;;;13.00;92.80;;;;;;4345690;33;43881;-84
2022/04/28 00:10:35;;;;;;;;;;;13.00;92.90;;;;;;4345231;33;46070;-84
2022/04/28 00:13:07;;;;;;;;;;;13.00;92.70;;;;;;4347199;33;20039;-84
2022/04/28 00:15:34;;;;;;;;;;;12.90;92.50;;;;;;4346233;32;45642;-84
2022/04/28 00:18:10;;;;;;;;;;;12.90;92.80;;;;;;4345981;33;44498;-84
2022/04/28 00:20:43;;;;;;;;;;;12.90;92.50;;;;;;4345148;33;43917;-84
2022/04/28 00:23:10;;;;;;;;;;;12.90;92.80;;;;;;4345021;33;44135;-84
2022/04/28 00:25:42;;;;;;;;;;;12.80;92.70;;;;;;4344539;33;43027;-84
2022/04/28 00:28:20;;;;;;;;;;;12.80;92.60;;;;;;4345070;33;44567;-84
2022/04/28 00:30:50;;;;;;;;;;;12.80;93.00;;;;;;4344857;33;42902;-84
2022/04/28 00:33:21;;;;;;;;;;;12.80;92.70;;;;;;4345155;33;43963;-83
2022/04/28 00:35:48;;;;;;;;;;;12.80;92.80;;;;;;4346030;33;44008;-84
2022/04/28 00:38:18;;;;;;;;;;;12.80;92.70;;;;;;4345882;33;44199;-84
2022/04/28 00:40:51;;;;;;;;;;;12.80;92.70;;;;;;4344805;33;43109;-84
2022/04/28 00:43:26;;;;;;;;;;;12.80;92.60;;;;;;4345554;33;20040;-83
2022/04/28 00:45:54;;;;;;;;;;;12.70;92.70;;;;;;4344741;33;45802;-84
2022/04/28 00:51:13;;;;;;;;;;;12.70;92.60;;;;;;4346017;33;44241;-83
2022/04/28 00:53:53;;;;;;;;;;;12.70;92.80;;;;;;4344338;33;43069;-83
2022/04/28 00:56:22;;;;;;;;;;;12.70;92.70;;;;;;4345411;33;43026;-83
2022/04/28 00:58:50;;;;;;;;;;;12.70;92.70;;;;;;4345318;33;42992;-83
2022/04/28 01:01:25;;;;;;;;;;;12.60;92.70;;;;;;4344980;32;42653;-83
2022/04/28 01:03:55;;;;;;;;;;;12.60;92.60;;;;;;4346602;32;44587;-83
2022/04/28 01:06:28;;;;;;;;;;;12.60;92.60;;;;;;4346937;32;43761;-83
2022/04/28 01:08:57;;;;;;;;;;;12.50;92.60;;;;;;4360258;32;44279;-83
2022/04/28 01:11:27;;;;;;;;;;;12.50;92.70;;;;;;4360279;32;44170;-83
2022/04/28 01:14:06;;;;;;;;;;;12.50;92.70;;;;;;4360915;32;20035;-82
2022/04/28 01:16:36;;;;;;;;;;;12.50;92.80;;;;;;4360285;32;43218;-82
2022/04/28 01:19:11;;;;;;;;;;;12.50;92.70;;;;;;4359862;32;43198;-83
2022/04/28 01:21:38;;;;;;;;;;;12.50;92.70;;;;;;4346928;32;44280;-83
2022/04/28 01:24:20;;;;;;;;;;;12.50;92.80;;;;;;4360411;32;44226;-82
2022/04/28 01:26:51;;;;;;;;;;;12.50;92.80;;;;;;4359878;32;44300;-82
2022/04/28 01:29:21;;;;;;;;;;;12.50;92.70;;;;;;4359928;32;43712;-82
2022/04/28 01:31:51;;;;;;;;;;;12.50;92.80;;;;;;4346642;32;45190;-83
2022/04/28 01:34:24;;;;;;;;;;;12.50;92.80;;;;;;4346915;32;42646;-82
2022/04/28 01:36:59;;;;;;;;;;;12.40;92.80;;;;;;4359957;32;43365;-83
2022/04/28 01:39:32;;;;;;;;;;;12.40;92.70;;;;;;4347248;33;45205;-82
2022/04/28 01:42:05;;;;;;;;;;;12.40;92.80;;;;;;4346277;33;43316;-82
2022/04/28 01:44:41;;;;;;;;;;;12.40;92.90;;;;;;4361022;33;20394;-82
2022/04/28 01:47:11;;;;;;;;;;;12.40;92.80;;;;;;4360049;33;44139;-83
2022/04/28 01:49:40;;;;;;;;;;;12.40;92.70;;;;;;4346381;33;43481;-82
2022/04/28 01:54:58;;;;;;;;;;;12.30;92.80;;;;;;4359783;33;42735;-82
2022/04/28 01:57:32;;;;;;;;;;;12.30;92.70;;;;;;4359845;33;43857;-82
2022/04/28 02:00:02;;;;;;;;;;;12.30;92.80;;;;;;4359886;33;46097;-82
2022/04/28 02:02:31;;;;;;;;;;;12.20;92.70;;;;;;4345854;33;44971;-81
2022/04/28 02:05:05;;;;;;;;;;;12.20;92.70;;;;;;4346698;33;42907;-81
2022/04/28 02:07:35;;;;;;;;;;;12.20;92.80;;;;;;4359774;33;43462;-81
2022/04/28 02:10:04;;;;;;;;;;;12.20;92.90;;;;;;4359373;33;43504;-82
2022/04/28 02:12:39;;;;;;;;;;;12.20;92.80;;;;;;4346565;33;43258;-81
2022/04/28 02:15:12;;;;;;;;;;;12.20;92.80;;;;;;4359858;33;43653;-82
2022/04/28 02:17:47;;;;;;;;;;;12.10;92.80;;;;;;4359893;33;43863;-82
2022/04/28 02:20:18;;;;;;;;;;;12.10;92.60;;;;;;4346416;33;45073;-82
2022/04/28 02:22:49;;;;;;;;;;;12.10;92.80;;;;;;4346539;33;44069;-82
2022/04/28 02:25:16;;;;;;;;;;;12.10;92.80;;;;;;4359195;33;45689;-82
2022/04/28 02:27:51;;;;;;;;;;;12.10;92.80;;;;;;4346637;33;43241;-81
2022/04/28 02:30:18;;;;;;;;;;;12.10;92.80;;;;;;4346187;32;42617;-82
2022/04/28 02:35:37;;;;;;;;;;;12.00;92.90;;;;;;4362424;32;43174;-82
2022/04/28 02:38:09;;;;;;;;;;;12.00;92.80;;;;;;4348589;32;43281;-82
2022/04/28 02:40:36;;;;;;;;;;;12.00;93.00;;;;;;4349386;32;44192;-82
2022/04/28 02:43:07;;;;;;;;;;;12.00;92.80;;;;;;4362589;32;43941;-81
2022/04/28 02:45:36;;;;;;;;;;;12.00;92.90;;;;;;4349579;32;20015;-81
2022/04/28 02:48:09;;;;;;;;;;;11.90;92.90;;;;;;4361900;32;42723;-81
2022/04/28 02:50:36;;;;;;;;;;;11.90;92.90;;;;;;4362394;32;44215;-81
2022/04/28 02:53:09;;;;;;;;;;;11.90;92.90;;;;;;4349004;32;43562;-81
2022/04/28 02:55:40;;;;;;;;;;;11.90;92.80;;;;;;4348870;32;45050;-81
2022/04/28 02:58:13;;;;;;;;;;;11.90;92.60;;;;;;4348625;32;44186;-81
2022/04/28 03:00:43;;;;;;;;;;;11.90;92.70;;;;;;4362246;32;43408;-82
2022/04/28 03:03:19;;;;;;;;;;;11.80;92.80;;;;;;4348621;32;42718;-82
2022/04/28 03:11:25;;;;;;;;;;;11.80;93.00;;;;;;4361608;32;42687;-82
2022/04/28 03:13:56;;;;;;;;;;;11.70;92.80;;;;;;4348148;32;44287;-82
2022/04/28 03:16:29;;;;;;;;;;;11.70;92.60;;;;;;4349250;32;20027;-82
2022/04/28 03:18:59;;;;;;;;;;;11.70;92.80;;;;;;4348549;32;41914;-82
2022/04/28 03:21:29;;;;;;;;;;;11.70;92.90;;;;;;4348456;32;44369;-81
2022/04/28 03:23:59;;;;;;;;;;;11.70;92.90;;;;;;4347936;32;43823;-82
2022/04/28 03:26:32;;;;;;;;;;;11.70;92.80;;;;;;4348915;32;45211;-82
2022/04/28 03:29:01;;;;;;;;;;;11.70;92.80;;;;;;4361291;32;43949;-82
2022/04/28 03:31:31;;;;;;;;;;;11.70;92.90;;;;;;4361774;32;43470;-82
2022/04/28 03:33:58;;;;;;;;;;;11.60;92.90;;;;;;4348581;32;42938;-82
2022/04/28 03:39:17;;;;;;;;;;;11.60;92.90;;;;;;4361200;32;44197;-82
2022/04/28 03:41:49;;;;;;;;;;;11.60;92.90;;;;;;4361345;32;43285;-82
2022/04/28 03:44:22;;;;;;;;;;;11.50;93.10;;;;;;4348468;32;45354;-82
2022/04/28 03:46:58;;;;;;;;;;;11.60;93.20;;;;;;4362418;32;20067;-82
2022/04/28 03:49:30;;;;;;;;;;;11.50;93.00;;;;;;4361606;32;44051;-82
2022/04/28 03:52:02;;;;;;;;;;;11.50;93.00;;;;;;4348054;32;43207;-82
2022/04/28 03:54:38;;;;;;;;;;;11.50;92.80;;;;;;4361032;32;42646;-82
2022/04/28 03:57:08;;;;;;;;;;;11.50;92.90;;;;;;4347713;32;43192;-82
2022/04/28 03:59:38;;;;;;;;;;;11.50;93.00;;;;;;4361634;32;43281;-82
2022/04/28 04:02:07;;;;;;;;;;;11.50;92.90;;;;;;4347541;32;42898;-81
2022/04/28 04:04:35;;;;;;;;;;;11.50;92.80;;;;;;4347560;32;43579;-82
2022/04/28 04:07:13;;;;;;;;;;;11.40;92.90;;;;;;4348529;32;42947;-82
2022/04/28 04:09:46;;;;;;;;;;;11.40;93.10;;;;;;4361267;32;44203;-81
2022/04/28 04:12:21;;;;;;;;;;;11.40;92.90;;;;;;4348467;32;45797;-82
2022/04/28 04:14:58;;;;;;;;;;;11.40;93.00;;;;;;4347979;32;43114;-81
2022/04/28 04:17:25;;;;;;;;;;;11.40;92.90;;;;;;4348619;32;20001;-81
2022/04/28 04:19:55;;;;;;;;;;;11.40;92.80;;;;;;4360488;32;45083;-82
2022/04/28 04:22:30;;;;;;;;;;;11.40;92.90;;;;;;4361300;32;44112;-82
2022/04/28 04:24:58;;;;;;;;;;;11.30;92.90;;;;;;4361187;32;43431;-82
2022/04/28 04:27:31;;;;;;;;;;;11.30;92.90;;;;;;4347257;32;42993;-82
2022/04/28 04:32:17;;;;;;;;;;;11.30;93.30;;;;;;4347923;32;43053;-82
2022/04/28 04:32:56;;;;;;;;;;;11.30;93.00;;;;;;4360603;32;42513;-82
2022/04/28 04:35:28;;;;;;;;;;;11.30;92.90;;;;;;4360762;32;44564;-82
2022/04/28 04:37:58;;;;;;;;;;;11.30;92.90;;;;;;4360918;32;44154;-82
2022/04/28 04:40:30;;;;;;;;;;;11.20;93.00;;;;;;4346926;32;44134;-82
2022/04/28 04:43:05;;;;;;;;;;;11.20;93.00;;;;;;4360728;32;44250;-81
2022/04/28 04:45:35;;;;;;;;;;;11.20;93.00;;;;;;4347719;32;44494;-82
2022/04/28 04:48:08;;;;;;;;;;;11.20;92.90;;;;;;4361184;32;20110;-82
2022/04/28 04:50:36;;;;;;;;;;;11.20;93.00;;;;;;4360350;32;43373;-82
2022/04/28 04:53:05;;;;;;;;;;;11.20;93.00;;;;;;4360311;32;43091;-81
2022/04/28 04:55:42;;;;;;;;;;;11.10;93.10;;;;;;4360555;32;43156;-81
2022/04/28 04:58:17;;;;;;;;;;;11.10;93.10;;;;;;4360555;32;43253;-82
2022/04/28 05:00:50;;;;;;;;;;;11.10;93.10;;;;;;4347005;32;45652;-82
2022/04/28 05:03:17;;;;;;;;;;;11.10;93.20;;;;;;4359940;32;44117;-81
2022/04/28 05:05:50;;;;;;;;;;;11.10;93.30;;;;;;4347050;32;43049;-82
2022/04/28 05:08:20;;;;;;;;;;;11.10;93.30;;;;;;4360089;32;45053;-82
2022/04/28 05:10:51;;;;;;;;;;;11.00;93.20;;;;;;4346583;32;43039;-82
2022/04/28 05:13:18;;;;;;;;;;;11.00;93.30;;;;;;4360280;32;43316;-82
2022/04/28 05:15:53;;;;;;;;;;;11.00;93.40;;;;;;4360219;32;44259;-82
2022/04/28 05:18:20;;;;;;;;;;;11.00;93.40;;;;;;4347934;32;20001;-82
2022/04/28 05:20:53;;;;;;;;;;;11.00;93.50;;;;;;4346441;32;45125;-82
2022/04/28 05:23:28;;;;;;;;;;;11.00;93.50;;;;;;4346947;32;44061;-82
2022/04/28 05:26:01;;;;;;;;;;;11.00;93.50;;;;;;4346752;32;42688;-82
2022/04/28 05:28:34;;;;;;;;;;;11.00;93.70;;;;;;4360170;32;44207;-81
2022/04/28 05:31:08;;;;;;;;;;;11.00;93.70;;;;;;4360208;32;45264;-82
2022/04/28 05:33:41;;;;;;;;;;;11.00;93.80;;;;;;4360202;32;43998;-82
2022/04/28 05:36:09;;;;;;;;;;;11.00;93.80;;;;;;4360057;32;44555;-82
2022/04/28 05:38:40;;;;;;;;;;;11.00;93.70;;;;;;4359772;32;43565;-82
2022/04/28 05:41:12;;;;;;;;;;;11.00;93.90;;;;;;4346758;33;43279;-82
2022/04/28 05:46:28;;;;;;;;;;;10.90;93.90;;;;;;4359886;33;43310;-82
2022/04/28 05:48:58;;;;;;;;;;;10.90;94.10;;;;;;4347169;33;20009;-82
2022/04/28 05:51:27;;;;;;;;;;;11.00;94.20;;;;;;4359507;33;43339;-82
2022/04/28 05:54:01;;;;;;;;;;;11.00;94.00;;;;;;4359748;33;42785;-82
2022/04/28 05:56:34;;;;;;;;;;;11.00;94.30;;;;;;4359626;33;42996;-82
2022/04/28 05:59:07;;;;;;;;;;;10.90;94.30;;;;;;4359868;33;44185;-82
2022/04/28 06:01:39;;;;;;;;;;;11.00;94.10;;;;;;4346603;33;42975;-82
2022/04/28 06:04:10;;;;;;;;;;;10.90;94.30;;;;;;4359486;33;43130;-82
2022/04/28 06:06:41;;;;;;;;;;;11.00;94.40;;;;;;4348548;32;44663;-83
2022/04/28 06:09:11;;;;;;;;;;;11.00;94.50;;;;;;4362887;32;44107;-82
2022/04/28 06:11:44;;;;;;;;;;;11.00;94.20;;;;;;4362392;32;42629;-82
2022/04/28 06:14:17;;;;;;;;;;;11.10;94.20;;;;;;4362418;32;44921;-82
2022/04/28 06:16:52;;;;;;;;;;;11.10;94.30;;;;;;4349810;32;43525;-81
2022/04/28 06:19:25;;;;;;;;;;;11.00;94.10;;;;;;4363991;32;20047;-82
2022/04/28 06:21:59;;;;;;;;;;;11.00;94.10;;;;;;4362654;32;43961;-82
2022/04/28 06:24:32;;;;;;;;;;;11.10;94.30;;;;;;4349535;32;43511;-82
2022/04/28 06:27:03;;;;;;;;;;;11.10;94.20;;;;;;4349082;32;43511;-83
2022/04/28 06:29:38;;;;;;;;;;;11.10;94.20;;;;;;4362622;32;44681;-83
2022/04/28 06:32:05;;;;;;;;;;;11.10;94.50;;;;;;4362311;32;43143;-83
2022/04/28 06:34:38;;;;;;;;;;;11.10;94.30;;;;;;4362480;32;44052;-83
2022/04/28 06:37:15;;;;;;;;;;;11.20;94.30;;;;;;4348751;32;43085;-82
2022/04/28 06:39:47;;;;;;;;;;;11.20;94.30;;;;;;4349183;32;43088;-82
2022/04/28 06:42:22;;;;;;;;;;;11.20;94.40;;;;;;4349540;32;43478;-82
2022/04/28 06:44:58;;;;;;;;;;;11.20;94.40;;;;;;4362527;32;43534;-82
2022/04/28 06:47:30;;;;;;;;;;;11.20;94.60;;;;;;4362425;32;44431;-82
2022/04/28 06:50:00;;;;;;;;;;;11.20;94.40;;;;;;4363267;32;20039;-82
2022/04/28 06:52:42;;;;;;;;;;;11.20;94.40;;;;;;4362288;32;42928;-82
2022/04/28 06:55:14;;;;;;;;;;;11.20;94.20;;;;;;4348541;32;44231;-83
2022/04/28 06:57:44;;;;;;;;;;;11.30;94.20;;;;;;4348565;32;42735;-83
2022/04/28 07:00:20;;;;;;;;;;;11.30;94.20;;;;;;4348936;32;43198;-82
2022/04/28 07:02:55;;;;;;;;;;;11.30;94.40;;;;;;4348265;32;43773;-82
2022/04/28 07:05:23;;;;;;;;;;;11.30;94.50;;;;;;4361983;32;42790;-82
2022/04/28 07:07:58;;;;;;;;;;;11.30;94.40;;;;;;4348823;32;43864;-82
2022/04/28 07:10:28;;;;;;;;;;;11.30;94.40;;;;;;4362087;32;43511;-81
2022/04/28 07:13:04;;;;;;;;;;;11.40;94.40;;;;;;4349113;32;44258;-82
2022/04/28 07:15:40;;;;;;;;;;;11.40;94.50;;;;;;4348629;32;44267;-82
2022/04/28 07:18:13;;;;;;;;;;;11.30;94.40;;;;;;4361241;32;42252;-82
2022/04/28 07:20:48;;;;;;;;;;;11.40;94.40;;;;;;4349293;32;20039;-81
2022/04/28 07:23:15;;;;;;;;;;;11.40;94.40;;;;;;4362106;32;44320;-82
2022/04/28 07:25:48;;;;;;;;;;;11.40;94.50;;;;;;4348511;32;43455;-82
2022/04/28 07:28:18;;;;;;;;;;;11.40;94.50;;;;;;4348470;32;43159;-82
2022/04/28 07:30:48;;;;;;;;;;;11.40;94.40;;;;;;4348068;32;44596;-82
2022/04/28 07:33:23;;;;;;;;;;;11.50;94.60;;;;;;4348322;32;45033;-81
2022/04/28 07:35:56;;;;;;;;;;;11.50;94.50;;;;;;4348578;32;43972;-81
2022/04/28 07:38:29;;;;;;;;;;;11.50;94.60;;;;;;4361556;32;45578;-81
2022/04/28 07:41:14;;;;;;;;;;;11.50;94.60;;;;;;4361324;32;43816;-81
2022/04/28 07:43:44;;;;;;;;;;;11.50;94.60;;;;;;4361637;32;43538;-81
2022/04/28 07:46:22;;;;;;;;;;;11.50;94.60;;;;;;4347760;32;44226;-81
2022/04/28 07:48:54;;;;;;;;;;;11.50;94.60;;;;;;4361495;32;46108;-81
2022/04/28 07:51:24;;;;;;;;;;;11.60;94.60;;;;;;4348526;32;44107;-80
2022/04/28 07:53:59;;;;;;;;;;;11.60;94.60;;;;;;4360969;32;43284;-80
2022/04/28 07:56:32;;;;;;;;;;;11.60;94.70;;;;;;4347592;32;43477;-81
2022/04/28 07:59:07;;;;;;;;;;;11.60;94.80;;;;;;4360893;32;44111;-81
2022/04/28 08:01:52;;;;;;;;;;;11.60;94.90;;;;;;4349321;32;43930;-81
2022/04/28 08:04:28;;;;;;;;;;;11.60;94.90;;;;;;4347597;32;43436;-80
2022/04/28 08:07:01;;;;;;;;;;;11.60;95.00;;;;;;4347643;32;42708;-80
2022/04/28 08:09:30;;;;;;;;;;;11.60;95.00;;;;;;4361316;32;44966;-80
2022/04/28 08:12:12;;;;;;;;;;;11.70;95.00;;;;;;4348597;32;44116;-81
2022/04/28 08:15:05;;;;;;;;;;;11.70;94.90;;;;;;4349594;32;45314;-80
2022/04/28 08:17:36;;;;;;;;;;;11.70;95.00;;;;;;4348068;32;44203;-80
2022/04/28 08:20:09;;;;;;;;;;;11.70;94.90;;;;;;4360658;32;44082;-80
2022/04/28 08:22:39;;;;;;;;;;;11.70;94.90;;;;;;4347257;32;43479;-81
2022/04/28 08:25:08;;;;;;;;;;;11.70;94.90;;;;;;4360696;32;43961;-80
2022/04/28 08:27:44;;;;;;;;;;;11.80;95.10;;;;;;4360330;32;44088;-80
2022/04/28 08:30:14;;;;;;;;;;;11.70;95.00;;;;;;4347253;32;43564;-80
2022/04/28 08:32:41;;;;;;;;;;;11.80;95.00;;;;;;4347506;32;44024;-80
2022/04/28 08:35:11;;;;;;;;;;;11.80;95.20;;;;;;4360895;32;42332;-80
2022/04/28 08:37:41;;;;;;;;;;;11.80;95.00;;;;;;4360453;32;44869;-80
2022/04/28 08:40:16;;;;;;;;;;;11.80;95.00;;;;;;4346895;32;43236;-80
2022/04/28 08:42:50;;;;;;;;;;;11.80;95.10;;;;;;4360884;32;43963;-80
2022/04/28 08:45:26;;;;;;;;;;;11.80;95.10;;;;;;4360263;32;43285;-80
2022/04/28 08:47:56;;;;;;;;;;;11.80;95.30;;;;;;4347687;32;43926;-80
2022/04/28 08:50:26;;;;;;;;;;;11.80;95.30;;;;;;4347292;32;42732;-80
2022/04/28 08:52:59;;;;;;;;;;;11.80;95.30;;;;;;4347881;32;20406;-80
2022/04/28 08:55:34;;;;;;;;;;;11.90;95.40;;;;;;4360575;32;44650;-79
2022/04/28 08:58:06;;;;;;;;;;;11.90;95.50;;;;;;4360044;32;43478;-80
2022/04/28 09:00:36;;;;;;;;;;;11.90;95.40;;;;;;4347305;32;43990;-80
2022/04/28 09:03:09;;;;;;;;;;;11.90;95.30;;;;;;4346592;32;43033;-79
2022/04/28 09:05:40;;;;;;;;;;;11.90;95.40;;;;;;4346829;32;43871;-80
2022/04/28 09:08:13;;;;;;;;;;;11.90;95.30;;;;;;4360295;32;43539;-80
2022/04/28 09:10:45;;;;;;;;;;;11.90;95.40;;;;;;4346996;32;44785;-80
2022/04/28 09:15:59;;;;;;;;;;;12.00;95.50;;;;;;4360370;32;44063;-79
2022/04/28 09:18:29;;;;;;;;;;;12.00;95.60;;;;;;4360077;32;43232;-78
2022/04/28 09:20:59;;;;;;;;;;;12.00;95.50;;;;;;4360260;32;43965;-79
2022/04/28 09:23:36;;;;;;;;;;;12.00;95.50;;;;;;4348083;32;19997;-79
2022/04/28 09:26:14;;;;;;;;;;;12.00;95.80;;;;;;4360283;32;43183;-78
2022/04/28 09:28:42;;;;;;;;;;;12.00;95.70;;;;;;4360441;32;43618;-78
2022/04/28 09:31:14;;;;;;;;;;;12.10;95.90;;;;;;4360098;32;45195;-79
2022/04/28 09:33:46;;;;;;;;;;;12.10;95.90;;;;;;4359807;32;42059;-79
2022/04/28 09:36:15;;;;;;;;;;;12.10;95.90;;;;;;4359803;32;43465;-78
2022/04/28 09:38:42;;;;;;;;;;;12.10;95.80;;;;;;4346485;32;43162;-79
2022/04/28 09:44:13;;;;;;;;;;;12.10;95.90;;;;;;4360102;32;42431;-79
2022/04/28 09:46:41;;;;;;;;;;;12.20;96.10;;;;;;4359887;33;42456;-79
2022/04/28 09:49:17;;;;;;;;;;;12.20;96.00;;;;;;4346393;33;44007;-79
2022/04/28 09:51:57;;;;;;;;;;;12.20;95.90;;;;;;4360039;33;44998;-79
2022/04/28 09:54:28;;;;;;;;;;;12.20;96.00;;;;;;4347305;33;20033;-80
2022/04/28 09:56:58;;;;;;;;;;;12.20;96.10;;;;;;4360027;33;45988;-80
2022/04/28 09:59:28;;;;;;;;;;;12.20;96.00;;;;;;4359786;33;43004;-80
2022/04/28 10:01:59;;;;;;;;;;;12.30;96.10;;;;;;4359423;33;43458;-80
2022/04/28 10:04:36;;;;;;;;;;;12.20;96.10;;;;;;4346887;33;43273;-80
2022/04/28 10:07:09;;;;;;;;;;;12.30;96.00;;;;;;4346567;33;44287;-80
2022/04/28 10:09:36;;;;;;;;;;;12.30;96.00;;;;;;4346631;33;43101;-80
2022/04/28 10:12:06;;;;;;;;;;;12.30;96.10;;;;;;4359352;33;44327;-79
2022/04/28 10:14:40;;;;;;;;;;;12.30;96.00;;;;;;4346779;33;44079;-80
2022/04/28 10:17:23;;;;;;;;;;;12.30;95.90;;;;;;4346667;33;43514;-80
2022/04/28 10:20:06;;;;;;;;;;;12.40;96.00;;;;;;4359524;33;45007;-80
2022/04/28 10:22:56;;;;;;;;;;;12.40;95.90;;;;;;4359802;33;45325;-80
2022/04/28 10:33:48;;;;;;;;;;;12.50;96.00;;;;;;4359798;33;44049;-80
2022/04/28 10:36:24;;;;;;;;;;;12.50;96.00;;;;;;4359490;33;43192;-80
2022/04/28 10:39:06;;;;;;;;;;;12.50;96.10;;;;;;4345880;33;46172;-79
2022/04/28 10:41:36;;;;;;;;;;;12.50;96.10;;;;;;4345803;33;45987;-80
2022/04/28 10:44:18;;;;;;;;;;;12.50;96.10;;;;;;4359383;33;43145;-80
2022/04/28 10:47:02;;;;;;;;;;;12.60;96.20;;;;;;4345851;33;43825;-80
2022/04/28 10:49:45;;;;;;;;;;;12.60;96.10;;;;;;4359773;33;43361;-80
2022/04/28 10:52:22;;;;;;;;;;;12.60;96.10;;;;;;4346088;32;43959;-80
2022/04/28 10:55:10;;;;;;;;;;;12.60;96.10;;;;;;4349801;32;20063;-80
2022/04/28 10:57:45;;;;;;;;;;;12.60;96.10;;;;;;4349569;32;43275;-80
2022/04/28 11:00:34;;;;;;;;;;;12.70;96.20;;;;;;4348820;32;43278;-79
2022/04/28 11:03:06;;;;;;;;;;;12.70;96.20;;;;;;4348230;32;43267;-80
2022/04/28 11:05:35;;;;;;;;;;;12.70;96.10;;;;;;4348475;32;42775;-80
2022/04/28 11:08:03;;;;;;;;;;;12.70;96.10;;;;;;4361673;32;44094;-79
2022/04/28 11:10:30;;;;;;;;;;;12.70;96.20;;;;;;4348710;32;43347;-79
2022/04/28 11:13:07;;;;;;;;;;;12.70;96.10;;;;;;4348539;32;42656;-79
2022/04/28 11:15:35;;;;;;;;;;;12.80;96.20;;;;;;4362025;32;45672;-79
2022/04/28 11:18:02;;;;;;;;;;;12.80;96.10;;;;;;4348466;32;45625;-80
2022/04/28 11:20:29;;;;;;;;;;;12.80;96.10;;;;;;4361734;32;44114;-79
2022/04/28 11:22:57;;;;;;;;;;;12.80;96.10;;;;;;4361522;32;44083;-80
2022/04/28 11:25:27;;;;;;;;;;;12.80;96.00;;;;;;4348675;32;44263;-79
2022/04/28 11:27:59;;;;;;;;;;;12.90;96.10;;;;;;4361793;32;42839;-80
2022/04/28 11:30:26;;;;;;;;;;;12.90;96.10;;;;;;4348465;32;42641;-80
2022/04/28 11:33:02;;;;;;;;;;;12.90;96.10;;;;;;4361316;32;43757;-79
2022/04/28 11:35:30;;;;;;;;;;;12.90;96.20;;;;;;4361739;32;43209;-79
2022/04/28 11:38:03;;;;;;;;;;;12.90;96.20;;;;;;4348221;32;44008;-79
2022/04/28 11:40:36;;;;;;;;;;;13.00;96.20;;;;;;4361305;32;44027;-79
2022/04/28 11:43:09;;;;;;;;;;;13.00;96.30;;;;;;4348262;32;43501;-79
2022/04/28 11:45:37;;;;;;;;;;;13.00;96.10;;;;;;4361176;32;43926;-79
2022/04/28 11:48:07;;;;;;;;;;;13.00;96.10;;;;;;4347776;32;43545;-80
2022/04/28 11:50:35;;;;;;;;;;;13.10;96.00;;;;;;4361400;32;43295;-79
2022/04/28 11:53:11;;;;;;;;;;;13.10;95.90;;;;;;4347947;32;45238;-79
2022/04/28 11:55:48;;;;;;;;;;;13.10;95.70;;;;;;4348677;32;20357;-79
2022/04/28 11:58:18;;;;;;;;;;;13.20;95.40;;;;;;4348079;32;44202;-79
2022/04/28 12:00:48;;;;;;;;;;;13.20;95.40;;;;;;4348464;32;43541;-79
2022/04/28 12:03:22;;;;;;;;;;;13.20;95.50;;;;;;4360765;32;44328;-80
2022/04/28 12:05:56;;;;;;;;;;;13.20;95.50;;;;;;4360882;32;44165;-80
2022/04/28 12:08:31;;;;;;;;;;;13.30;95.50;;;;;;4348178;32;44289;-79
2022/04/28 12:19:47;;;;;;;;;;;13.40;95.70;;;;;;4360528;32;44132;-80
2022/04/28 12:22:34;;;;;;;;;;;13.40;95.30;;;;;;4347407;32;44943;-79
2022/04/28 12:25:15;;;;;;;;;;;13.40;95.40;;;;;;4360786;32;44826;-80
2022/04/28 12:27:53;;;;;;;;;;;13.40;95.40;;;;;;4361927;32;20020;-79
2022/04/28 12:30:20;;;;;;;;;;;13.50;95.20;;;;;;4347600;32;45505;-80
2022/04/28 12:32:50;;;;;;;;;;;13.50;95.20;;;;;;4348030;32;20526;-79
2022/04/28 12:35:30;;;;;;;;;;;13.50;95.10;;;;;;4360382;32;42778;-79
2022/04/28 12:38:01;;;;;;;;;;;13.60;95.30;;;;;;4347670;32;44860;-80
2022/04/28 12:40:47;;;;;;;;;;;13.60;95.10;;;;;;4347624;32;44177;-79
2022/04/28 12:43:33;;;;;;;;;;;13.60;95.10;;;;;;4360850;32;43920;-79
2022/04/28 12:46:05;;;;;;;;;;;13.70;94.90;;;;;;4346887;32;42482;-79
2022/04/28 12:48:33;;;;;;;;;;;13.70;94.90;;;;;;4360974;32;44033;-80
2022/04/28 12:51:08;;;;;;;;;;;13.70;94.80;;;;;;4360628;32;44367;-79
2022/04/28 12:53:40;;;;;;;;;;;13.70;94.60;;;;;;4347198;32;43869;-79
2022/04/28 12:56:16;;;;;;;;;;;13.80;94.70;;;;;;4360365;32;43979;-79
2022/04/28 12:58:54;;;;;;;;;;;13.80;94.60;;;;;;4348397;32;20027;-79
2022/04/28 13:01:27;;;;;;;;;;;13.80;94.50;;;;;;4347234;32;45996;-80
2022/04/28 13:04:05;;;;;;;;;;;13.80;94.70;;;;;;4347663;32;43966;-80
2022/04/28 13:06:37;;;;;;;;;;;13.90;94.80;;;;;;4346717;32;42363;-79
2022/04/28 13:09:11;;;;;;;;;;;13.90;94.70;;;;;;4360862;32;44050;-80
2022/04/28 13:11:45;;;;;;;;;;;13.90;94.50;;;;;;4347220;32;43938;-79
2022/04/28 13:14:16;;;;;;;;;;;14.00;94.30;;;;;;4346981;33;44195;-79
2022/04/28 13:16:43;;;;;;;;;;;14.00;94.40;;;;;;4360607;32;43945;-79
2022/04/28 13:19:11;;;;;;;;;;;14.00;94.10;;;;;;4360210;32;43823;-79
2022/04/28 13:21:47;;;;;;;;;;;14.10;94.20;;;;;;4346551;32;43142;-80
2022/04/28 13:24:19;;;;;;;;;;;14.10;93.90;;;;;;4360013;32;42717;-79
2022/04/28 13:26:47;;;;;;;;;;;14.20;93.90;;;;;;4347022;32;43639;-79
2022/04/28 13:29:19;;;;;;;;;;;14.20;94.00;;;;;;4360792;32;20005;-80
2022/04/28 13:31:46;;;;;;;;;;;14.20;93.80;;;;;;4346807;32;43837;-79
2022/04/28 13:34:22;;;;;;;;;;;14.30;93.70;;;;;;4346712;32;44101;-80
2022/04/28 13:36:51;;;;;;;;;;;14.30;93.70;;;;;;4346314;32;44905;-80
2022/04/28 13:39:18;;;;;;;;;;;14.30;93.80;;;;;;4346514;32;44228;-80
2022/04/28 13:41:46;;;;;;;;;;;14.40;93.60;;;;;;4346873;32;44745;-80
2022/04/28 13:44:19;;;;;;;;;;;14.40;93.90;;;;;;4360049;32;43768;-80
2022/04/28 13:46:52;;;;;;;;;;;14.40;93.70;;;;;;4346365;33;43192;-79
2022/04/28 13:49:25;;;;;;;;;;;14.40;93.60;;;;;;4360228;33;43100;-79
2022/04/28 13:52:03;;;;;;;;;;;14.50;93.50;;;;;;4347073;33;43946;-79
2022/04/28 13:54:39;;;;;;;;;;;14.50;93.20;;;;;;4346255;33;43042;-79
2022/04/28 13:57:14;;;;;;;;;;;14.50;93.20;;;;;;4359555;33;45076;-79
2022/04/28 13:59:50;;;;;;;;;;;14.60;93.50;;;;;;4360684;33;19997;-79
2022/04/28 14:02:22;;;;;;;;;;;14.60;93.50;;;;;;4346298;33;43290;-79
2022/04/28 14:04:58;;;;;;;;;;;14.70;93.40;;;;;;4346573;33;42949;-80
2022/04/28 14:07:28;;;;;;;;;;;14.70;93.40;;;;;;4346690;33;43006;-80
2022/04/28 14:10:01;;;;;;;;;;;14.80;93.20;;;;;;4346356;33;43919;-79
2022/04/28 14:12:28;;;;;;;;;;;14.80;93.40;;;;;;4346557;33;45973;-79
2022/04/28 14:15:01;;;;;;;;;;;14.80;93.10;;;;;;4346368;33;44130;-80
2022/04/28 14:17:34;;;;;;;;;;;14.80;93.20;;;;;;4359976;33;44215;-79
2022/04/28 14:20:09;;;;;;;;;;;14.80;93.00;;;;;;4346579;33;43169;-80
2022/04/28 14:22:42;;;;;;;;;;;14.90;93.30;;;;;;4346102;33;42775;-79
2022/04/28 14:25:09;;;;;;;;;;;14.90;93.10;;;;;;4346563;33;43944;-80
2022/04/28 14:27:39;;;;;;;;;;;15.00;93.10;;;;;;4361367;32;44270;-80
2022/04/28 14:30:12;;;;;;;;;;;15.00;93.00;;;;;;4350216;32;20076;-80
2022/04/28 14:32:39;;;;;;;;;;;15.00;93.60;;;;;;4349202;32;42861;-79
2022/04/28 14:35:15;;;;;;;;;;;15.00;92.90;;;;;;4362131;32;42919;-79
2022/04/28 14:37:42;;;;;;;;;;;15.00;92.90;;;;;;4348783;32;43032;-79
2022/04/28 14:40:18;;;;;;;;;;;15.10;92.80;;;;;;4349337;32;43154;-79
2022/04/28 14:42:51;;;;;;;;;;;15.10;93.00;;;;;;4362572;32;43906;-79
2022/04/28 14:45:23;;;;;;;;;;;15.10;92.80;;;;;;4348705;32;42617;-79
2022/04/28 14:47:56;;;;;;;;;;;15.20;92.60;;;;;;4362548;32;44031;-80
2022/04/28 14:53:40;;;;;;;;;;;15.20;92.80;;;;;;4361956;32;43132;-80
2022/04/28 14:56:16;;;;;;;;;;;15.20;92.70;;;;;;4348521;32;44196;-80
2022/04/28 14:58:43;;;;;;;;;;;15.30;92.80;;;;;;4348759;32;43831;-80
2022/04/28 15:01:17;;;;;;;;;;;15.30;93.00;;;;;;4348417;32;45204;-80
2022/04/28 15:03:44;;;;;;;;;;;15.30;92.40;;;;;;4362282;32;43893;-80
2022/04/28 15:06:17;;;;;;;;;;;15.40;92.10;;;;;;4348759;32;45202;-80
2022/04/28 15:08:53;;;;;;;;;;;15.40;92.50;;;;;;4349007;32;44276;-80
2022/04/28 15:11:26;;;;;;;;;;;15.40;92.70;;;;;;4362004;32;43786;-80
2022/04/28 15:14:02;;;;;;;;;;;15.50;92.60;;;;;;4348642;32;44016;-79
2022/04/28 15:16:34;;;;;;;;;;;15.50;92.90;;;;;;4348596;32;45920;-80
2022/04/28 15:19:01;;;;;;;;;;;15.50;92.70;;;;;;4361700;32;42536;-80
2022/04/28 15:21:37;;;;;;;;;;;15.50;92.30;;;;;;4361583;32;43994;-80
2022/04/28 15:24:09;;;;;;;;;;;15.50;92.50;;;;;;4361952;32;44890;-80
2022/04/28 15:26:36;;;;;;;;;;;15.50;92.60;;;;;;4348699;32;43278;-81
2022/04/28 15:29:03;;;;;;;;;;;15.60;92.30;;;;;;4348077;32;42726;-80
2022/04/28 15:31:36;;;;;;;;;;;15.60;92.40;;;;;;4362692;32;20016;-81